createdAt,value
2018-08-17T00:00:09.747Z,99468.93
2018-08-17T00:01:47.386Z,99443.66
2018-08-17T00:03:25.182Z,99473.38
2018-08-17T00:05:01.822Z,99493.71
2018-08-17T00:06:39.238Z,99449.46
2018-08-17T00:08:21.202Z,99550.07
2018-08-17T00:09:59.537Z,99557.61
2018-08-17T00:11:38.513Z,99502.23
2018-08-17T00:13:15.317Z,99581.53
2018-08-17T00:14:52.340Z,99582.55
2018-08-17T00:16:29.574Z,99583.91
2018-08-17T00:18:12.687Z,99626.94
2018-08-17T00:19:48.569Z,99594.12
2018-08-17T00:21:27.196Z,99540.43
2018-08-17T00:23:05.431Z,99459.44
2018-08-17T00:24:42.434Z,99438.63
2018-08-17T00:26:17.776Z,99287.09
2018-08-17T00:27:54.550Z,99217.74
2018-08-17T00:29:32.652Z,99379.86
2018-08-17T00:31:09.482Z,99323.92
2018-08-17T00:32:46.272Z,99268.22
2018-08-17T00:34:21.982Z,99242.11
2018-08-17T00:35:58.251Z,99217.74
2018-08-17T00:37:35.562Z,99165.06
2018-08-17T00:39:11.727Z,99138.48
2018-08-17T00:40:49.027Z,99162.51
2018-08-17T00:42:25.843Z,99098.39
2018-08-17T00:44:01.929Z,99094.70
2018-08-17T00:45:41.744Z,99051.91
2018-08-17T00:47:16.993Z,99066.56
2018-08-17T00:48:52.875Z,99154.99
2018-08-17T00:50:29.455Z,99234.25
2018-08-17T00:52:05.135Z,99356.94
2018-08-17T00:53:41.177Z,99320.59
2018-08-17T00:55:17.660Z,99407.83
2018-08-17T00:56:55.646Z,99525.28
2018-08-17T00:58:32.865Z,99512.44
2018-08-17T01:00:12.586Z,99554.62
2018-08-17T01:01:48.860Z,99574.11
2018-08-17T01:03:26.950Z,99621.63
2018-08-17T01:05:04.362Z,99667.39
2018-08-17T01:06:42.662Z,99690.84
2018-08-17T01:08:19.678Z,99689.11
2018-08-17T01:09:58.485Z,99738.36
2018-08-17T01:11:45.181Z,99822.33
2018-08-17T01:13:21.830Z,99804.41
2018-08-17T01:15:01.427Z,99759.36
2018-08-17T01:16:37.634Z,99615.59
2018-08-17T01:18:14.172Z,99559.68
2018-08-17T01:19:49.777Z,99551.28
2018-08-17T01:21:25.922Z,99476.81
2018-08-17T01:23:02.504Z,99373.69
2018-08-17T01:24:37.674Z,99424.20
2018-08-17T01:26:14.070Z,99581.01
2018-08-17T01:27:49.313Z,99703.92
2018-08-17T01:29:27.365Z,99735.91
2018-08-17T01:31:03.700Z,99715.53
2018-08-17T01:32:39.450Z,99614.35
2018-08-17T01:34:14.618Z,99586.92
2018-08-17T01:35:52.292Z,99568.20
2018-08-17T01:37:28.561Z,99530.45
2018-08-17T01:39:06.560Z,99509.23
2018-08-17T01:40:42.653Z,99453.42
2018-08-17T01:42:18.628Z,99426.92
2018-08-17T01:43:53.846Z,99374.67
2018-08-17T01:45:29.753Z,99313.45
2018-08-17T01:47:05.072Z,99287.80
2018-08-17T01:48:41.328Z,99279.93
2018-08-17T01:50:20.559Z,99195.84
2018-08-17T01:51:59.698Z,99122.91
2018-08-17T01:53:37.893Z,99051.67
2018-08-17T01:55:15.745Z,99026.98
2018-08-17T01:56:52.586Z,99009.27
2018-08-17T01:58:28.495Z,98963.27
2018-08-17T02:00:05.743Z,98904.54
2018-08-17T02:01:43.130Z,98883.26
2018-08-17T02:03:18.422Z,98878.83
2018-08-17T02:04:54.495Z,98852.45
2018-08-17T02:06:31.247Z,98882.06
2018-08-17T02:08:11.310Z,98848.52
2018-08-17T02:09:47.050Z,98786.61
2018-08-17T02:11:22.628Z,98789.80
2018-08-17T02:12:59.512Z,98787.25
2018-08-17T02:14:35.434Z,98769.05
2018-08-17T02:16:11.023Z,98750.16
2018-08-17T02:17:46.273Z,98694.03
2018-08-17T02:19:22.258Z,98649.86
2018-08-17T02:20:58.210Z,98605.95
2018-08-17T02:22:33.444Z,98556.05
2018-08-17T02:24:08.890Z,98565.38
2018-08-17T02:25:44.310Z,98548.22
2018-08-17T02:27:20.108Z,98524.80
2018-08-17T02:28:55.405Z,98517.31
2018-08-17T02:30:31.012Z,98535.94
2018-08-17T02:32:07.506Z,98501.88
2018-08-17T02:33:44.194Z,98471.59
2018-08-17T02:35:22.026Z,98413.05
2018-08-17T02:37:00.834Z,98392.31
2018-08-17T02:38:38.334Z,98371.46
2018-08-17T02:41:58.358Z,98441.69
2018-08-17T02:43:34.235Z,98433.38
2018-08-17T02:45:10.465Z,98406.55
2018-08-17T02:46:47.112Z,98349.82
2018-08-17T02:48:22.575Z,98260.79
2018-08-17T02:49:57.807Z,98264.96
2018-08-17T02:51:33.449Z,98294.34
2018-08-17T02:53:09.395Z,98299.13
2018-08-17T02:54:45.717Z,98305.02
2018-08-17T02:56:23.378Z,98308.78
2018-08-17T02:57:58.951Z,98294.47
2018-08-17T02:59:34.798Z,98255.31
2018-08-17T03:01:11.234Z,98213.92
2018-08-17T03:02:46.716Z,98182.38
2018-08-17T03:04:22.484Z,98148.97
2018-08-17T03:05:58.567Z,98160.48
2018-08-17T03:07:33.732Z,98203.55
2018-08-17T03:09:11.195Z,98260.83
2018-08-17T03:10:46.434Z,98319.20
2018-08-17T03:12:21.959Z,98357.55
2018-08-17T03:13:58.082Z,98376.04
2018-08-17T03:15:33.626Z,98336.86
2018-08-17T03:17:09.836Z,98331.22
2018-08-17T03:18:45.492Z,98391.13
2018-08-17T03:20:20.729Z,98455.84
2018-08-17T03:21:55.898Z,98447.98
2018-08-17T03:23:31.417Z,98432.92
2018-08-17T03:25:06.664Z,98409.61
2018-08-17T03:26:42.639Z,98375.09
2018-08-17T03:28:17.847Z,98358.17
2018-08-17T03:29:53.312Z,98362.09
2018-08-17T03:31:30.467Z,98353.91
2018-08-17T03:33:05.693Z,98345.08
2018-08-17T03:34:41.549Z,98334.41
2018-08-17T03:36:17.611Z,98381.69
2018-08-17T03:37:52.836Z,98418.69
2018-08-17T03:39:28.808Z,98394.06
2018-08-17T03:41:04.917Z,98384.91
2018-08-17T03:42:41.634Z,98308.23
2018-08-17T03:44:16.811Z,98260.50
2018-08-17T03:45:52.384Z,98161.02
2018-08-17T03:47:29.936Z,98140.84
2018-08-17T03:49:07.248Z,98170.33
2018-08-17T03:50:45.470Z,98173.52
2018-08-17T03:52:21.066Z,98178.78
2018-08-17T03:53:57.736Z,98190.14
2018-08-17T03:55:32.940Z,98142.31
2018-08-17T03:57:08.670Z,98141.46
2018-08-17T03:58:44.349Z,98138.27
2018-08-17T04:00:22.851Z,98151.63
2018-08-17T04:01:59.292Z,98154.20
2018-08-17T04:03:35.213Z,98132.80
2018-08-17T04:05:10.927Z,98133.16
2018-08-17T04:06:47.095Z,98137.70
2018-08-17T04:08:23.549Z,98171.80
2018-08-17T04:09:59.054Z,98220.25
2018-08-17T04:11:35.530Z,98296.39
2018-08-17T04:13:11.786Z,98365.23
2018-08-17T04:14:46.950Z,98388.13
2018-08-17T04:16:22.566Z,98433.78
2018-08-17T04:17:58.460Z,98440.77
2018-08-17T04:19:35.791Z,98474.77
2018-08-17T04:21:10.998Z,98531.40
2018-08-17T04:22:46.781Z,98549.29
2018-08-17T04:24:23.347Z,98558.25
2018-08-17T04:26:00.434Z,98529.19
2018-08-17T04:27:36.442Z,98585.22
2018-08-17T04:29:11.961Z,98612.91
2018-08-17T04:30:47.621Z,98668.61
2018-08-17T04:32:25.132Z,98705.67
2018-08-17T04:34:00.959Z,98770.95
2018-08-17T04:35:36.193Z,98801.44
2018-08-17T04:37:14.787Z,98834.60
2018-08-17T04:40:21.486Z,98876.22
2018-08-17T04:41:59.635Z,98943.78
2018-08-17T04:43:35.218Z,98983.12
2018-08-17T04:45:10.961Z,99026.50
2018-08-17T04:46:46.499Z,99035.24
2018-08-17T04:48:22.115Z,99008.44
2018-08-17T04:50:00.775Z,98905.95
2018-08-17T04:51:39.795Z,98743.48
2018-08-17T04:53:15.943Z,98622.64
2018-08-17T04:54:51.149Z,98482.00
2018-08-17T04:56:27.006Z,98409.84
2018-08-17T04:58:03.254Z,98382.16
2018-08-17T04:59:39.230Z,98379.08
2018-08-17T05:01:14.750Z,98389.14
2018-08-17T05:02:50.150Z,98351.28
2018-08-17T05:04:26.364Z,98289.84
2018-08-17T05:06:01.591Z,98252.89
2018-08-17T05:07:37.434Z,98248.84
2018-08-17T05:09:17.185Z,98228.66
2018-08-17T05:10:53.238Z,98235.24
2018-08-17T05:12:35.422Z,98256.08
2018-08-17T05:14:13.019Z,98290.48
2018-08-17T05:15:49.073Z,98331.36
2018-08-17T05:17:35.667Z,98334.42
2018-08-17T05:19:11.594Z,98339.33
2018-08-17T05:20:47.005Z,98408.73
2018-08-17T05:22:22.222Z,98455.89
2018-08-17T05:23:57.606Z,98493.89
2018-08-17T05:25:35.484Z,98529.23
2018-08-17T05:27:11.855Z,98518.56
2018-08-17T05:28:47.730Z,98553.39
2018-08-17T05:30:47.963Z,98540.63
2018-08-17T05:32:30.159Z,98426.88
2018-08-17T05:34:12.766Z,98358.67
2018-08-17T05:35:54.111Z,98385.13
2018-08-17T05:37:30.829Z,98414.28
2018-08-17T05:39:07.625Z,98424.80
2018-08-17T05:40:43.532Z,98426.15
2018-08-17T05:42:19.557Z,98462.42
2018-08-17T05:43:55.697Z,98398.95
2018-08-17T05:45:32.752Z,98402.51
2018-08-17T05:47:11.760Z,98402.17
2018-08-17T05:48:47.462Z,98337.16
2018-08-17T05:50:25.075Z,98361.73
2018-08-17T05:52:02.388Z,98394.31
2018-08-17T05:53:37.647Z,98463.52
2018-08-17T05:55:13.369Z,98495.03
2018-08-17T05:56:50.385Z,98563.57
2018-08-17T05:58:27.080Z,98608.56
2018-08-17T06:00:05.651Z,98681.45
2018-08-17T06:01:41.299Z,98692.34
2018-08-17T06:03:16.647Z,98747.57
2018-08-17T06:04:54.236Z,98756.91
2018-08-17T06:06:29.927Z,98807.58
2018-08-17T06:08:05.604Z,98747.20
2018-08-17T06:09:40.824Z,98636.19
2018-08-17T06:11:16.083Z,98435.62
2018-08-17T06:12:51.271Z,98221.26
2018-08-17T06:14:26.675Z,98179.16
2018-08-17T06:16:04.929Z,98196.27
2018-08-17T06:17:41.253Z,98206.44
2018-08-17T06:19:16.585Z,97959.85
2018-08-17T06:20:54.790Z,97826.48
2018-08-17T06:22:29.956Z,97872.17
2018-08-17T06:24:06.319Z,97716.27
2018-08-17T06:25:41.565Z,97653.95
2018-08-17T06:27:17.545Z,97603.73
2018-08-17T06:28:53.650Z,97529.26
2018-08-17T06:30:29.397Z,97513.91
2018-08-17T06:32:05.058Z,97485.00
2018-08-17T06:33:40.795Z,97446.03
2018-08-17T06:35:16.219Z,97387.33
2018-08-17T06:36:53.111Z,97468.94
2018-08-17T06:38:28.321Z,97526.73
2018-08-17T06:40:05.495Z,97489.89
2018-08-17T06:41:43.985Z,97469.80
2018-08-17T06:43:19.493Z,97431.81
2018-08-17T06:44:54.686Z,97382.25
2018-08-17T06:46:30.616Z,97394.89
2018-08-17T06:48:14.828Z,97397.58
2018-08-17T06:49:53.644Z,97419.63
2018-08-17T06:51:34.688Z,97431.32
2018-08-17T06:53:10.438Z,97497.95
2018-08-17T06:54:46.590Z,97514.14
2018-08-17T06:56:22.759Z,97619.23
2018-08-17T06:57:58.524Z,97727.69
2018-08-17T06:59:33.741Z,97936.20
2018-08-17T07:01:09.214Z,98098.22
2018-08-17T07:02:45.948Z,98052.51
2018-08-17T07:04:28.217Z,98017.58
2018-08-17T07:06:05.209Z,98012.31
2018-08-17T07:07:41.973Z,97933.63
2018-08-17T07:09:19.624Z,97856.45
2018-08-17T07:10:55.377Z,97752.09
2018-08-17T07:12:31.941Z,97723.41
2018-08-17T07:14:07.750Z,97721.34
2018-08-17T07:15:43.617Z,97760.03
2018-08-17T07:17:20.286Z,97783.22
2018-08-17T07:18:59.293Z,97773.08
2018-08-17T07:20:35.536Z,97777.59
2018-08-17T07:22:12.670Z,97761.38
2018-08-17T07:23:48.846Z,97758.33
2018-08-17T07:25:24.042Z,97844.52
2018-08-17T07:27:02.877Z,97928.66
2018-08-17T07:28:39.529Z,98020.15
2018-08-17T07:30:18.048Z,98183.14
2018-08-17T07:31:54.423Z,98331.97
2018-08-17T07:33:32.312Z,98489.20
2018-08-17T07:35:12.204Z,98570.72
2018-08-17T07:36:50.849Z,98676.21
2018-08-17T07:38:27.847Z,98704.92
2018-08-17T07:40:04.253Z,98727.98
2018-08-17T07:41:41.748Z,98674.61
2018-08-17T07:43:18.360Z,98629.61
2018-08-17T07:44:58.075Z,98505.77
2018-08-17T07:46:35.826Z,98560.92
2018-08-17T07:48:17.465Z,98622.76
2018-08-17T07:49:52.525Z,98590.59
2018-08-17T07:51:30.636Z,98616.21
2018-08-17T07:53:10.727Z,98708.84
2018-08-17T07:54:50.377Z,98821.88
2018-08-17T07:56:26.540Z,98968.65
2018-08-17T07:58:03.490Z,99088.23
2018-08-17T07:59:39.108Z,99099.77
2018-08-17T08:01:18.049Z,99096.73
2018-08-17T08:02:53.280Z,99068.94
2018-08-17T08:04:31.062Z,98999.24
2018-08-17T08:06:09.183Z,98991.02
2018-08-17T08:07:48.502Z,98998.87
2018-08-17T08:09:27.619Z,99013.02
2018-08-17T08:11:04.326Z,98994.93
2018-08-17T08:12:44.409Z,98937.05
2018-08-17T08:14:20.919Z,98956.08
2018-08-17T08:15:56.546Z,98967.64
2018-08-17T08:17:32.451Z,99010.92
2018-08-17T08:19:13.685Z,99074.34
2018-08-17T08:20:48.957Z,99096.35
2018-08-17T08:22:24.126Z,99135.31
2018-08-17T08:23:59.379Z,99171.60
2018-08-17T08:25:35.222Z,99219.44
2018-08-17T08:27:12.788Z,99240.23
2018-08-17T08:28:48.027Z,99219.93
2018-08-17T08:30:25.131Z,99242.94
2018-08-17T08:32:07.601Z,99261.27
2018-08-17T08:33:44.337Z,99221.77
2018-08-17T08:35:22.012Z,99229.29
2018-08-17T08:37:01.670Z,99228.91
2018-08-17T08:38:38.817Z,99251.54
2018-08-17T08:40:14.734Z,99307.30
2018-08-17T08:41:50.520Z,99250.67
2018-08-17T08:43:28.127Z,99350.77
2018-08-17T08:45:08.178Z,99443.51
2018-08-17T08:46:44.984Z,99496.23
2018-08-17T08:48:23.582Z,99534.93
2018-08-17T08:50:00.867Z,99561.90
2018-08-17T08:51:41.330Z,99513.10
2018-08-17T08:53:20.294Z,99417.39
2018-08-17T08:54:55.591Z,99331.06
2018-08-17T08:56:33.866Z,99271.72
2018-08-17T08:58:20.134Z,99254.50
2018-08-17T09:00:02.670Z,99273.56
2018-08-17T09:01:39.234Z,99193.47
2018-08-17T09:03:14.454Z,99131.13
2018-08-17T09:04:50.381Z,99109.12
2018-08-17T09:06:26.579Z,99034.27
2018-08-17T09:08:01.986Z,98991.48
2018-08-17T09:09:38.227Z,98941.11
2018-08-17T09:11:16.253Z,98953.50
2018-08-17T09:12:52.689Z,98934.96
2018-08-17T09:14:34.203Z,98907.68
2018-08-17T09:16:11.115Z,98906.33
2018-08-17T09:17:46.337Z,98863.86
2018-08-17T09:19:24.155Z,98837.72
2018-08-17T09:21:03.642Z,98798.57
2018-08-17T09:22:42.853Z,98792.42
2018-08-17T09:24:19.335Z,98781.73
2018-08-17T09:25:54.976Z,98808.73
2018-08-17T09:27:36.432Z,98840.91
2018-08-17T09:31:06.642Z,98918.75
2018-08-17T09:32:54.072Z,98956.34
2018-08-17T09:34:34.641Z,98985.06
2018-08-17T09:36:10.082Z,98986.79
2018-08-17T09:37:46.136Z,99021.81
2018-08-17T09:39:24.801Z,99041.70
2018-08-17T09:41:00.387Z,99083.42
2018-08-17T09:42:36.971Z,99115.27
2018-08-17T09:44:15.321Z,99065.21
2018-08-17T09:45:52.428Z,98989.60
2018-08-17T09:47:29.122Z,98941.45
2018-08-17T09:49:05.946Z,98887.57
2018-08-17T09:50:44.026Z,98857.11
2018-08-17T09:52:19.503Z,98843.84
2018-08-17T09:53:55.334Z,98853.92
2018-08-17T09:55:30.779Z,98817.81
2018-08-17T09:57:07.118Z,98845.19
2018-08-17T09:58:42.403Z,98839.08
2018-08-17T10:00:20.045Z,98843.98
2018-08-17T10:02:01.182Z,98862.03
2018-08-17T10:03:43.903Z,98858.95
2018-08-17T10:07:18.008Z,98860.30
2018-08-17T10:09:04.757Z,98913.95
2018-08-17T10:10:43.291Z,98945.66
2018-08-17T10:12:25.190Z,98989.48
2018-08-17T10:14:01.121Z,99087.70
2018-08-17T10:15:39.982Z,99173.53
2018-08-17T10:17:16.571Z,99265.53
2018-08-17T10:18:52.879Z,99361.30
2018-08-17T10:20:29.996Z,99422.77
2018-08-17T10:22:10.326Z,99467.59
2018-08-17T10:23:46.406Z,99527.09
2018-08-17T10:25:24.923Z,99566.55
2018-08-17T10:27:02.283Z,99544.34
2018-08-17T10:28:39.118Z,99575.29
2018-08-17T10:30:18.528Z,99559.39
2018-08-17T10:31:57.786Z,99383.94
2018-08-17T10:33:35.508Z,99293.72
2018-08-17T10:35:23.617Z,99280.30
2018-08-17T10:37:01.603Z,99448.23
2018-08-17T10:38:38.500Z,99594.14
2018-08-17T10:40:13.854Z,99695.73
2018-08-17T10:41:50.541Z,99715.33
2018-08-17T10:43:26.654Z,99690.05
2018-08-17T10:45:04.208Z,99575.16
2018-08-17T10:46:39.745Z,99546.31
2018-08-17T10:48:16.053Z,99552.60
2018-08-17T10:50:02.780Z,99452.78
2018-08-17T10:51:47.927Z,99476.83
2018-08-17T10:53:48.567Z,99504.30
2018-08-17T10:55:29.473Z,99571.20
2018-08-17T10:57:07.332Z,99595.60
2018-08-17T10:58:46.899Z,99551.84
2018-08-17T11:00:23.994Z,99646.36
2018-08-17T11:02:00.921Z,99771.47
2018-08-17T11:03:36.273Z,99854.81
2018-08-17T11:05:12.223Z,99943.44
2018-08-17T11:06:47.937Z,99962.08
2018-08-17T11:08:24.192Z,99956.76
2018-08-17T11:10:05.510Z,99958.98
2018-08-17T11:11:44.383Z,99864.68
2018-08-17T11:13:23.296Z,99740.41
2018-08-17T11:14:59.922Z,99718.63
2018-08-17T11:16:36.427Z,99666.36
2018-08-17T11:18:17.006Z,99568.70
2018-08-17T11:19:55.867Z,99562.56
2018-08-17T11:21:31.412Z,99557.15
2018-08-17T11:23:06.788Z,99565.17
2018-08-17T11:24:42.537Z,99533.73
2018-08-17T11:26:23.102Z,99485.43
2018-08-17T11:28:01.444Z,99506.36
2018-08-17T11:29:37.981Z,99520.06
2018-08-17T11:31:26.319Z,99524.84
2018-08-17T11:33:03.395Z,99496.50
2018-08-17T11:34:43.199Z,99485.05
2018-08-17T11:36:25.737Z,99472.11
2018-08-17T11:38:06.849Z,99456.23
2018-08-17T11:39:49.371Z,99375.53
2018-08-17T11:41:27.308Z,99388.47
2018-08-17T11:43:05.641Z,99334.42
2018-08-17T11:44:47.098Z,99224.92
2018-08-17T11:46:49.485Z,99187.42
2018-08-17T11:48:35.518Z,99224.66
2018-08-17T11:50:14.456Z,99291.00
2018-08-17T11:51:50.835Z,99385.28
2018-08-17T11:53:27.448Z,99421.99
2018-08-17T11:55:04.317Z,99407.54
2018-08-17T11:56:39.545Z,99474.96
2018-08-17T11:58:16.200Z,99517.45
2018-08-17T11:59:57.398Z,99531.13
2018-08-17T12:01:45.931Z,99563.05
2018-08-17T12:03:24.789Z,99616.30
2018-08-17T12:05:01.605Z,99661.16
2018-08-17T12:06:37.192Z,99672.38
2018-08-17T12:08:16.676Z,99702.59
2018-08-17T12:10:05.747Z,99755.80
2018-08-17T12:13:50.658Z,99680.88
2018-08-17T12:15:33.830Z,99664.49
2018-08-17T12:17:10.444Z,99663.63
2018-08-17T12:18:46.812Z,99714.53
2018-08-17T12:20:23.102Z,99699.88
2018-08-17T12:22:12.237Z,99743.41
2018-08-17T12:23:49.586Z,99783.42
2018-08-17T12:25:26.913Z,99852.17
2018-08-17T12:27:03.381Z,99842.40
2018-08-17T12:28:41.917Z,99842.89
2018-08-17T12:30:26.570Z,99857.10
2018-08-17T12:32:04.685Z,99925.98
2018-08-17T12:33:42.701Z,99945.10
2018-08-17T12:35:21.537Z,99941.03
2018-08-17T12:37:02.523Z,99979.81
2018-08-17T12:38:47.827Z,99893.50
2018-08-17T12:40:39.643Z,99835.00
2018-08-17T12:42:17.695Z,99891.80
2018-08-17T12:43:58.201Z,99985.63
2018-08-17T12:45:38.608Z,100001.69
2018-08-17T12:47:22.761Z,99979.81
2018-08-17T12:49:04.410Z,100039.09
2018-08-17T12:50:55.323Z,100024.30
2018-08-17T12:52:43.744Z,100117.36
2018-08-17T12:54:27.477Z,100129.72
2018-08-17T12:56:08.615Z,100178.19
2018-08-17T12:57:48.574Z,100244.60
2018-08-17T12:59:31.372Z,100177.84
2018-08-17T13:01:13.647Z,100177.84
2018-08-17T13:03:00.291Z,100208.23
2018-08-17T13:04:43.433Z,100181.77
2018-08-17T13:06:19.764Z,100218.86
2018-08-17T13:07:56.610Z,100267.73
2018-08-17T13:09:35.622Z,100350.63
2018-08-17T13:11:13.034Z,100419.14
2018-08-17T13:13:11.591Z,100452.67
2018-08-17T13:14:51.006Z,100507.54
2018-08-17T13:16:32.692Z,100550.28
2018-08-17T13:18:21.789Z,100539.64
2018-08-17T13:19:57.342Z,100484.37
2018-08-17T13:21:34.384Z,100500.36
2018-08-17T13:23:11.924Z,100487.00
2018-08-17T13:24:52.725Z,100480.69
2018-08-17T13:26:39.163Z,100377.30
2018-08-17T13:28:57.811Z,100249.06
2018-08-17T13:30:49.375Z,100190.80
2018-08-17T13:32:28.636Z,100231.27
2018-08-17T13:34:04.024Z,100264.63
2018-08-17T13:35:45.370Z,100236.56
2018-08-17T13:37:26.165Z,100274.81
2018-08-17T13:39:03.620Z,100232.63
2018-08-17T13:40:41.167Z,100204.55
2018-08-17T13:42:19.103Z,100274.42
2018-08-17T13:43:55.991Z,100303.28
2018-08-17T13:45:34.304Z,100339.77
2018-08-17T13:47:10.377Z,100339.87
2018-08-17T13:48:48.308Z,100377.55
2018-08-17T13:50:27.380Z,100418.17
2018-08-17T13:52:05.859Z,100460.15
2018-08-17T13:53:41.193Z,100445.88
2018-08-17T13:55:16.562Z,100410.50
2018-08-17T13:56:52.160Z,100394.53
2018-08-17T13:58:28.344Z,100423.50
2018-08-17T14:00:14.042Z,100436.38
2018-08-17T14:01:51.387Z,100446.66
2018-08-17T14:03:27.856Z,100357.97
2018-08-17T14:05:05.771Z,100284.85
2018-08-17T14:06:42.644Z,100303.14
2018-08-17T14:08:18.004Z,100327.78
2018-08-17T14:09:53.980Z,100329.39
2018-08-17T14:11:31.245Z,100448.41
2018-08-17T14:13:07.550Z,100521.48
2018-08-17T14:14:43.733Z,100578.95
2018-08-17T14:16:19.595Z,100639.69
2018-08-17T14:17:56.352Z,100632.14
2018-08-17T14:19:34.468Z,100701.34
2018-08-17T14:21:11.658Z,100726.67
2018-08-17T14:22:48.001Z,100739.17
2018-08-17T14:24:24.432Z,100714.13
2018-08-17T14:26:01.488Z,100657.84
2018-08-17T14:27:37.378Z,100555.69
2018-08-17T14:29:16.482Z,100577.02
2018-08-17T14:31:09.397Z,100600.67
2018-08-17T14:32:45.190Z,100531.05
2018-08-17T14:34:22.841Z,100462.30
2018-08-17T14:36:00.761Z,100382.56
2018-08-17T14:37:37.846Z,100390.61
2018-08-17T14:39:15.410Z,100393.71
2018-08-17T14:40:50.726Z,100413.77
2018-08-17T14:42:27.994Z,100390.02
2018-08-17T14:44:04.915Z,100418.86
2018-08-17T14:45:42.473Z,100436.92
2018-08-17T14:47:20.801Z,100364.64
2018-08-17T14:48:59.720Z,100371.34
2018-08-17T14:50:36.640Z,100405.89
2018-08-17T14:52:12.287Z,100485.76
2018-08-17T14:53:48.441Z,100572.99
2018-08-17T14:55:24.351Z,100598.41
2018-08-17T14:57:00.537Z,100591.34
2018-08-17T14:58:39.375Z,100586.88
2018-08-17T15:00:27.596Z,100593.45
2018-08-17T15:02:06.023Z,100615.02
2018-08-17T15:03:43.925Z,100593.94
2018-08-17T15:05:21.152Z,100527.91
2018-08-17T15:06:58.664Z,100570.66
2018-08-17T15:08:35.484Z,100557.27
2018-08-17T15:10:14.539Z,100547.98
2018-08-17T15:11:50.533Z,100511.70
2018-08-17T15:13:31.693Z,100500.05
2018-08-17T15:15:11.776Z,100468.47
2018-08-17T15:16:47.973Z,100434.92
2018-08-17T15:18:29.111Z,100464.40
2018-08-17T15:20:09.528Z,100516.94
2018-08-17T15:21:46.834Z,100539.59
2018-08-17T15:23:22.118Z,100561.14
2018-08-17T15:24:58.440Z,100599.95
2018-08-17T15:26:42.326Z,100581.11
2018-08-17T15:28:28.275Z,100597.23
2018-08-17T15:30:07.146Z,100674.49
2018-08-17T15:31:42.617Z,100726.58
2018-08-17T15:33:22.540Z,100702.02
2018-08-17T15:34:59.244Z,100685.92
2018-08-17T15:36:35.547Z,100719.38
2018-08-17T15:38:12.287Z,100732.70
2018-08-17T15:39:51.192Z,100762.22
2018-08-17T15:41:27.694Z,100846.58
2018-08-17T15:43:07.346Z,100880.52
2018-08-17T15:44:43.479Z,100928.31
2018-08-17T15:46:22.995Z,100937.27
2018-08-17T15:48:00.018Z,100914.80
2018-08-17T15:49:37.774Z,100866.12
2018-08-17T15:51:16.141Z,100819.67
2018-08-17T15:52:53.591Z,100788.30
2018-08-17T15:54:32.029Z,100697.26
2018-08-17T15:56:09.284Z,100593.12
2018-08-17T15:57:50.049Z,100541.29
2018-08-17T16:01:13.858Z,100533.72
2018-08-17T16:02:49.794Z,100660.46
2018-08-17T16:04:27.626Z,100747.89
2018-08-17T16:06:04.253Z,100806.84
2018-08-17T16:07:40.618Z,100794.20
2018-08-17T16:09:16.451Z,100773.63
2018-08-17T16:10:51.757Z,100760.20
2018-08-17T16:12:28.585Z,100663.44
2018-08-17T16:14:04.943Z,100619.08
2018-08-17T16:15:43.934Z,100603.95
2018-08-17T16:17:19.584Z,100614.64
2018-08-17T16:18:57.280Z,100602.11
2018-08-17T16:20:33.387Z,100340.44
2018-08-17T16:22:09.771Z,100322.63
2018-08-17T16:23:45.005Z,100478.41
2018-08-17T16:25:21.456Z,100551.92
2018-08-17T16:27:06.381Z,100548.47
2018-08-17T16:28:46.100Z,100530.98
2018-08-17T16:30:26.914Z,100568.44
2018-08-17T16:32:06.866Z,100528.17
2018-08-17T16:33:44.474Z,100524.19
2018-08-17T16:35:22.352Z,100533.13
2018-08-17T16:37:00.165Z,100593.72
2018-08-17T16:38:40.170Z,100595.46
2018-08-17T16:40:16.801Z,100588.27
2018-08-17T16:41:54.281Z,100611.84
2018-08-17T16:43:45.641Z,100491.85
2018-08-17T16:45:22.111Z,100515.93
2018-08-17T16:46:57.590Z,100574.80
2018-08-17T16:48:34.531Z,100601.45
2018-08-17T16:50:12.460Z,100538.61
2018-08-17T16:51:52.122Z,100506.41
2018-08-17T16:53:30.688Z,100537.16
2018-08-17T16:55:07.874Z,100550.03
2018-08-17T16:56:47.895Z,100591.08
2018-08-17T16:58:25.629Z,100593.67
2018-08-17T17:00:02.557Z,100596.78
2018-08-17T17:01:40.005Z,100605.72
2018-08-17T17:03:16.525Z,100624.81
2018-08-17T17:04:54.607Z,100657.05
2018-08-17T17:06:34.554Z,100677.02
2018-08-17T17:08:10.681Z,100671.58
2018-08-17T17:09:46.645Z,100641.69
2018-08-17T17:11:22.763Z,100703.72
2018-08-17T17:12:59.304Z,100791.70
2018-08-17T17:14:37.965Z,100777.83
2018-08-17T17:16:13.903Z,100786.64
2018-08-17T17:17:58.866Z,100802.65
2018-08-17T17:19:34.724Z,100837.05
2018-08-17T17:21:10.285Z,100902.84
2018-08-17T17:22:49.604Z,100882.98
2018-08-17T17:24:25.399Z,100755.27
2018-08-17T17:26:04.712Z,100726.68
2018-08-17T17:27:40.795Z,100702.90
2018-08-17T17:31:00.329Z,100680.93
2018-08-17T17:32:36.373Z,100697.45
2018-08-17T17:34:13.436Z,100689.77
2018-08-17T17:35:52.598Z,100621.05
2018-08-17T17:37:28.267Z,100593.78
2018-08-17T17:39:05.887Z,100594.78
2018-08-17T17:40:45.513Z,100613.50
2018-08-17T17:42:24.848Z,100647.73
2018-08-17T17:44:01.640Z,100633.48
2018-08-17T17:45:40.226Z,100678.88
2018-08-17T17:47:16.389Z,100694.40
2018-08-17T17:48:54.033Z,100638.59
2018-08-17T17:50:30.658Z,100591.23
2018-08-17T17:53:38.779Z,100498.50
2018-08-17T17:55:14.471Z,100297.47
2018-08-17T17:57:02.653Z,100214.56
2018-08-17T17:58:38.679Z,100294.27
2018-08-17T18:00:21.407Z,100327.20
2018-08-17T18:02:00.273Z,100372.64
2018-08-17T18:03:37.319Z,100446.62
2018-08-17T18:05:14.458Z,100541.53
2018-08-17T18:06:52.450Z,100584.69
2018-08-17T18:08:28.431Z,100573.41
2018-08-17T18:10:07.335Z,100585.95
2018-08-17T18:11:43.489Z,100601.55
2018-08-17T18:13:22.239Z,100690.41
2018-08-17T18:14:57.982Z,100723.28
2018-08-17T18:16:37.465Z,100740.69
2018-08-17T18:18:14.056Z,100760.30
2018-08-17T18:19:54.585Z,100765.73
2018-08-17T18:21:34.689Z,100740.55
2018-08-17T18:23:10.817Z,100785.25
2018-08-17T18:24:48.279Z,100820.59
2018-08-17T18:26:25.263Z,100804.47
2018-08-17T18:28:02.504Z,100774.84
2018-08-17T18:29:38.057Z,100737.73
2018-08-17T18:31:13.955Z,100688.22
2018-08-17T18:32:51.453Z,100665.02
2018-08-17T18:34:27.850Z,100680.53
2018-08-17T18:36:08.652Z,100733.16
2018-08-17T18:37:44.685Z,100730.92
2018-08-17T18:39:24.822Z,100724.59
2018-08-17T18:41:00.684Z,100729.07
2018-08-17T18:42:36.318Z,100675.48
2018-08-17T18:44:14.050Z,100681.31
2018-08-17T18:45:51.751Z,100680.33
2018-08-17T18:47:28.106Z,100650.44
2018-08-17T18:49:03.432Z,100599.94
2018-08-17T18:50:40.868Z,100606.12
2018-08-17T18:52:17.498Z,100610.10
2018-08-17T18:53:57.609Z,100607.87
2018-08-17T18:57:01.498Z,100593.13
2018-08-17T18:58:38.542Z,100587.69
2018-08-17T19:00:16.375Z,100541.81
2018-08-17T19:01:53.167Z,100514.06
2018-08-17T19:03:29.028Z,100472.15
2018-08-17T19:05:06.085Z,100446.26
2018-08-17T19:06:42.437Z,100418.62
2018-08-17T19:08:21.070Z,100398.08
2018-08-17T19:09:57.376Z,100373.56
2018-08-17T19:11:34.792Z,100263.84
2018-08-17T19:13:11.341Z,100239.83